Time;durP1;ratioP1;P1;durP2;ratioP2;P2;SDS_P1;SDS_P2;PMS_P1;PMS_P2;Temp;Humidity;BMP_temperature;BMP_pressure;BME280_temperature;BME280_humidity;BME280_pressure;Samples;Min_cycle;Max_cycle;Signal;HPM_P1;HPM_P2
2023/11/20 00:01:29;;;;;;;1.77;0.30;;;10.90;1.00;;;;;;5094271;28;20421;-50
2023/11/20 00:03:56;;;;;;;1.58;0.30;;;10.90;1.00;;;;;;5094291;28;20425;-54
2023/11/20 00:06:23;;;;;;;1.60;0.40;;;10.80;1.00;;;;;;5094607;28;20706;-56
2023/11/20 00:08:50;;;;;;;3.13;0.40;;;10.80;1.00;;;;;;5094292;28;20436;-54
2023/11/20 00:11:17;;;;;;;1.50;0.40;;;10.70;1.00;;;;;;5092829;28;20505;-54
2023/11/20 00:13:45;;;;;;;2.30;0.40;;;10.90;9.90;;;;;;5094782;28;20429;-54
2023/11/20 00:16:12;;;;;;;4.38;0.40;;;10.80;1.00;;;;;;5094276;28;20449;-55
2023/11/20 00:18:41;;;;;;;1.97;0.40;;;10.80;1.00;;;;;;5094886;28;20434;-55
2023/11/20 00:21:08;;;;;;;3.65;0.40;;;10.80;1.00;;;;;;5094878;28;20421;-54
2023/11/20 00:23:35;;;;;;;2.05;0.30;;;10.90;1.00;;;;;;5095008;28;20418;-56
2023/11/20 00:26:09;;;;;;;1.00;0.30;;;11.00;1.00;;;;;;5095797;28;20422;-55
2023/11/20 00:28:37;;;;;;;1.95;0.30;;;11.10;1.00;;;;;;5095681;28;20418;-54
2023/11/20 00:31:05;;;;;;;1.80;0.30;;;11.10;1.00;;;;;;5094682;28;20422;-54
2023/11/20 00:33:33;;;;;;;1.10;0.40;;;11.20;1.00;;;;;;5095496;28;20418;-51
2023/11/20 00:36:02;;;;;;;2.07;0.40;;;11.30;1.00;;;;;;5094788;28;20433;-53
2023/11/20 00:38:29;;;;;;;1.30;0.30;;;11.30;1.00;;;;;;5094594;28;20433;-53
2023/11/20 00:40:56;;;;;;;1.90;0.30;;;11.40;1.00;;;;;;5093410;28;20440;-54
2023/11/20 00:43:23;;;;;;;1.00;0.30;;;11.50;1.00;;;;;;5094441;28;20418;-53
2023/11/20 00:45:50;;;;;;;2.30;0.20;;;11.60;1.00;;;;;;5094548;28;20402;-54
2023/11/20 00:48:17;;;;;;;2.70;0.40;;;11.50;1.00;;;;;;5094509;28;20852;-53
2023/11/20 00:50:45;;;;;;;1.30;0.30;;;11.30;1.00;;;;;;5094135;28;20418;-55
2023/11/20 00:53:13;;;;;;;1.70;0.30;;;11.30;1.00;;;;;;5093926;28;20421;-54
2023/11/20 00:55:40;;;;;;;1.90;0.40;;;11.20;1.00;;;;;;5093353;28;20425;-55
2023/11/20 00:58:07;;;;;;;1.50;0.40;;;11.20;1.00;;;;;;5093598;28;20432;-55
2023/11/20 01:00:34;;;;;;;1.00;0.30;;;11.00;1.00;;;;;;5094326;28;20422;-53
2023/11/20 01:03:01;;;;;;;1.98;0.40;;;10.90;1.00;;;;;;5094299;28;20425;-56
2023/11/20 01:05:28;;;;;;;0.98;0.30;;;10.90;1.00;;;;;;5093286;28;20425;-53
2023/11/20 01:07:55;;;;;;;3.22;0.30;;;10.80;1.00;;;;;;5093410;28;20429;-56
2023/11/20 01:10:24;;;;;;;2.20;0.40;;;10.80;1.00;;;;;;5093906;28;20475;-52
2023/11/20 01:12:51;;;;;;;1.80;0.40;;;10.70;1.00;;;;;;5093644;28;20418;-54
2023/11/20 01:15:18;;;;;;;2.17;0.40;;;10.70;1.00;;;;;;5093153;28;20413;-54
2023/11/20 01:17:45;;;;;;;2.30;0.40;;;10.70;1.00;;;;;;5093553;28;20441;-54
2023/11/20 01:20:12;;;;;;;1.65;0.40;;;10.70;1.00;;;;;;5092960;28;20866;-53
2023/11/20 01:22:39;;;;;;;1.70;0.30;;;10.60;1.00;;;;;;5093784;28;20451;-55
2023/11/20 01:25:07;;;;;;;3.60;0.40;;;10.50;1.00;;;;;;5093591;28;20413;-55
2023/11/20 01:27:35;;;;;;;3.10;0.50;;;10.40;1.00;;;;;;5092705;28;20479;-54
2023/11/20 01:30:02;;;;;;;2.60;0.40;;;10.30;1.00;;;;;;5093606;28;20480;-55
2023/11/20 01:32:29;;;;;;;1.60;0.30;;;10.30;2.90;;;;;;5094907;28;20430;-53
2023/11/20 01:34:57;;;;;;;2.50;0.40;;;10.30;8.90;;;;;;5093602;28;20426;-53
2023/11/20 01:37:24;;;;;;;1.60;0.30;;;10.30;14.10;;;;;;5093489;28;20476;-54
2023/11/20 01:39:51;;;;;;;2.90;0.38;;;10.30;13.00;;;;;;5094153;28;20417;-55
2023/11/20 01:42:19;;;;;;;2.17;0.40;;;10.30;12.80;;;;;;5093959;28;20726;-54
2023/11/20 01:44:47;;;;;;;2.00;0.38;;;10.30;13.40;;;;;;5093455;28;20486;-53
2023/11/20 01:47:14;;;;;;;1.00;0.30;;;10.30;15.20;;;;;;5094017;28;20440;-56
2023/11/20 01:49:42;;;;;;;2.97;0.37;;;10.30;20.10;;;;;;5093319;28;20567;-53
2023/11/20 01:52:10;;;;;;;1.58;0.40;;;10.30;10.70;;;;;;5093766;28;20469;-54
2023/11/20 01:54:38;;;;;;;2.15;0.30;;;10.40;9.40;;;;;;5093242;28;20512;-54
2023/11/20 01:57:06;;;;;;;1.90;0.40;;;10.40;25.40;;;;;;5092796;28;20430;-54
2023/11/20 01:59:33;;;;;;;1.35;0.38;;;10.40;10.40;;;;;;5093266;28;20837;-55
2023/11/20 02:02:02;;;;;;;0.93;0.30;;;10.40;8.30;;;;;;5093358;28;20436;-57
2023/11/20 02:04:31;;;;;;;1.65;0.30;;;10.40;17.20;;;;;;5093684;28;20467;-52
2023/11/20 02:06:59;;;;;;;1.10;0.30;;;10.50;22.20;;;;;;5093458;28;20418;-51
2023/11/20 02:09:26;;;;;;;1.38;0.40;;;10.40;17.60;;;;;;5092366;28;20491;-51
2023/11/20 02:11:53;;;;;;;2.03;0.30;;;10.40;16.00;;;;;;5093525;28;20428;-55
2023/11/20 02:14:20;;;;;;;0.90;0.40;;;10.50;28.90;;;;;;5092568;28;20833;-54
2023/11/20 02:16:47;;;;;;;2.10;0.30;;;10.60;23.40;;;;;;5091933;28;20655;-55
2023/11/20 02:19:16;;;;;;;1.48;0.40;;;10.60;19.90;;;;;;5092106;28;20430;-54
2023/11/20 02:21:44;;;;;;;2.30;0.40;;;10.70;24.90;;;;;;5093040;28;20425;-49
2023/11/20 02:24:12;;;;;;;3.03;0.40;;;10.70;17.00;;;;;;5093723;28;20775;-52
2023/11/20 02:26:58;;;;;;;2.07;0.40;;;10.70;24.40;;;;;;5093521;28;20459;-51
2023/11/20 02:29:40;;;;;;;1.35;0.30;;;10.60;37.00;;;;;;5092791;28;20457;-54
2023/11/20 02:32:07;;;;;;;1.40;0.30;;;10.70;34.90;;;;;;5094177;28;20516;-54
2023/11/20 02:34:36;;;;;;;2.17;0.40;;;10.70;39.60;;;;;;5092764;28;20421;-56
2023/11/20 02:37:04;;;;;;;1.40;0.40;;;10.80;35.20;;;;;;5092900;28;20440;-52
2023/11/20 02:39:32;;;;;;;1.10;0.30;;;10.80;37.20;;;;;;5092629;28;20812;-56
2023/11/20 02:42:00;;;;;;;1.70;0.40;;;10.90;42.00;;;;;;5092825;28;20540;-52
2023/11/20 02:44:27;;;;;;;1.27;0.30;;;10.80;46.40;;;;;;5092013;28;20524;-53
2023/11/20 02:46:55;;;;;;;1.80;0.30;;;10.80;53.70;;;;;;5091764;28;20429;-56
2023/11/20 02:49:23;;;;;;;1.75;0.30;;;10.70;99.90;;;;;;5092367;28;20508;-52
2023/11/20 02:51:50;;;;;;;1.30;0.30;;;10.70;99.90;;;;;;5091759;28;20775;-55
2023/11/20 02:54:17;;;;;;;1.00;0.30;;;10.70;99.90;;;;;;5092821;28;20691;-52
2023/11/20 02:56:44;;;;;;;1.80;0.40;;;10.70;99.90;;;;;;5092788;28;20531;-53
2023/11/20 02:59:11;;;;;;;2.20;0.40;;;10.70;99.90;;;;;;5092708;28;20434;-54
2023/11/20 03:01:38;;;;;;;1.90;0.32;;;10.70;99.90;;;;;;5092299;28;20422;-50
2023/11/20 03:04:07;;;;;;;1.40;0.40;;;10.70;99.90;;;;;;5092839;28;20459;-55
2023/11/20 03:06:34;;;;;;;0.95;0.30;;;10.70;99.90;;;;;;5091793;28;20491;-52
2023/11/20 03:09:02;;;;;;;3.00;0.40;;;10.70;99.90;;;;;;5092082;28;20431;-54
2023/11/20 03:11:29;;;;;;;0.75;0.30;;;10.70;99.90;;;;;;5091903;28;20456;-50
2023/11/20 03:13:56;;;;;;;4.85;0.40;;;10.70;99.90;;;;;;5093331;28;20425;-55
2023/11/20 03:16:23;;;;;;;1.50;0.30;;;10.70;99.90;;;;;;5096324;28;20414;-56
2023/11/20 03:18:50;;;;;;;1.00;0.30;;;10.70;99.90;;;;;;5094263;28;20456;-53
2023/11/20 03:21:18;;;;;;;1.05;0.30;;;10.70;99.90;;;;;;5096171;28;20921;-55
2023/11/20 03:23:45;;;;;;;1.40;0.30;;;10.70;99.90;;;;;;5095962;28;20509;-56
2023/11/20 03:26:12;;;;;;;1.48;0.30;;;10.80;99.90;;;;;;5096363;28;20421;-52
2023/11/20 03:28:39;;;;;;;0.85;0.30;;;10.80;99.90;;;;;;5096103;28;20414;-55
2023/11/20 03:31:06;;;;;;;1.20;0.40;;;10.80;99.90;;;;;;5095031;28;20418;-56
2023/11/20 03:33:33;;;;;;;1.77;0.30;;;10.90;99.90;;;;;;5096473;28;20985;-55
2023/11/20 03:36:00;;;;;;;0.52;0.30;;;11.00;99.90;;;;;;5096588;28;20479;-52
2023/11/20 03:38:28;;;;;;;1.60;0.30;;;11.00;99.90;;;;;;5095051;28;20719;-54
2023/11/20 03:40:55;;;;;;;1.20;0.30;;;11.10;99.90;;;;;;5095105;28;20417;-55
2023/11/20 03:43:23;;;;;;;1.13;0.30;;;11.20;99.90;;;;;;5095822;28;20417;-51
2023/11/20 03:45:50;;;;;;;0.98;0.30;;;11.20;99.90;;;;;;5093304;28;20787;-54
2023/11/20 03:48:18;;;;;;;1.80;0.30;;;11.20;99.90;;;;;;5094632;28;20475;-54
2023/11/20 03:50:45;;;;;;;1.65;0.20;;;11.20;99.90;;;;;;5093872;28;20421;-55
2023/11/20 03:53:12;;;;;;;2.17;0.40;;;11.30;99.90;;;;;;5095245;28;20433;-51
2023/11/20 03:55:40;;;;;;;2.08;0.60;;;11.30;99.90;;;;;;5093126;28;20414;-53
2023/11/20 03:58:08;;;;;;;3.20;0.50;;;11.30;99.90;;;;;;5094377;28;20706;-51
2023/11/20 04:00:35;;;;;;;0.90;0.22;;;11.50;99.90;;;;;;5094103;28;20483;-54
2023/11/20 04:03:02;;;;;;;1.10;0.30;;;11.60;99.90;;;;;;5094993;28;20432;-53
2023/11/20 04:05:29;;;;;;;1.00;0.30;;;11.70;1.00;;;;;;5095408;28;20425;-54
2023/11/20 04:07:56;;;;;;;0.70;0.30;;;11.70;1.00;;;;;;5095508;28;20467;-55
2023/11/20 04:10:23;;;;;;;1.33;0.30;;;11.80;1.00;;;;;;5094876;28;20409;-53
2023/11/20 04:12:51;;;;;;;1.80;0.40;;;11.80;1.00;;;;;;5096100;28;20418;-54
2023/11/20 04:15:18;;;;;;;1.40;0.30;;;11.70;1.00;;;;;;5095286;28;20486;-50
2023/11/20 04:17:45;;;;;;;1.33;0.30;;;11.60;1.00;;;;;;5095154;28;20445;-56
2023/11/20 04:20:13;;;;;;;2.08;0.30;;;11.70;1.00;;;;;;5094580;28;20449;-54
2023/11/20 04:22:40;;;;;;;1.52;0.30;;;11.80;1.00;;;;;;5092759;28;20475;-53
2023/11/20 04:25:07;;;;;;;1.42;0.30;;;11.90;1.00;;;;;;5092652;28;20421;-55
2023/11/20 04:27:35;;;;;;;2.38;0.30;;;12.00;1.00;;;;;;5094445;28;20415;-54
2023/11/20 04:30:05;;;;;;;1.33;0.30;;;12.00;1.00;;;;;;5094334;28;20449;-56
2023/11/20 04:32:31;;;;;;;1.27;0.40;;;11.90;1.00;;;;;;5093482;28;20417;-56
2023/11/20 04:34:58;;;;;;;0.52;0.30;;;12.00;1.00;;;;;;5093918;28;20441;-56
2023/11/20 04:37:25;;;;;;;1.70;0.40;;;12.10;1.00;;;;;;5094000;28;20418;-56
2023/11/20 04:39:52;;;;;;;1.00;0.30;;;12.10;1.00;;;;;;5093748;28;20861;-52
2023/11/20 04:42:19;;;;;;;1.30;0.30;;;12.00;1.00;;;;;;5093917;28;20852;-55
2023/11/20 04:44:46;;;;;;;0.60;0.30;;;12.00;1.00;;;;;;5093626;28;20475;-53
2023/11/20 04:47:15;;;;;;;1.70;0.30;;;11.90;1.00;;;;;;5090574;28;20417;-55
2023/11/20 04:49:42;;;;;;;1.70;0.30;;;11.90;1.00;;;;;;5090990;28;20463;-58
2023/11/20 04:52:08;;;;;;;0.80;0.30;;;12.00;1.00;;;;;;5092883;28;20710;-52
2023/11/20 04:54:36;;;;;;;1.65;0.30;;;11.90;1.00;;;;;;5092905;28;20417;-56
2023/11/20 04:57:03;;;;;;;1.42;0.20;;;11.90;1.00;;;;;;5093410;28;20729;-53
2023/11/20 04:59:30;;;;;;;1.60;0.30;;;11.90;1.00;;;;;;5092358;28;20438;-56
2023/11/20 05:01:57;;;;;;;1.80;0.30;;;11.80;1.00;;;;;;5092282;28;20871;-56
2023/11/20 05:04:25;;;;;;;1.42;0.30;;;11.70;1.00;;;;;;5092155;28;20594;-56
2023/11/20 05:06:52;;;;;;;1.90;0.30;;;11.60;1.00;;;;;;5091886;28;20837;-54
2023/11/20 05:09:19;;;;;;;0.83;0.30;;;11.50;1.00;;;;;;5092269;28;20418;-56
2023/11/20 05:11:46;;;;;;;2.80;0.30;;;11.50;1.00;;;;;;5093083;28;20542;-57
2023/11/20 05:14:13;;;;;;;0.90;0.20;;;11.50;1.00;;;;;;5093171;28;20413;-56
2023/11/20 05:16:41;;;;;;;2.65;0.30;;;11.50;1.00;;;;;;5092559;28;20499;-53
2023/11/20 05:19:07;;;;;;;3.08;0.30;;;11.60;1.00;;;;;;5093920;28;20554;-56
2023/11/20 05:21:36;;;;;;;1.10;0.30;;;11.60;1.00;;;;;;5094044;28;20425;-57
2023/11/20 05:24:03;;;;;;;0.95;0.28;;;11.70;1.00;;;;;;5093077;28;20426;-54
2023/11/20 05:26:30;;;;;;;1.58;0.40;;;11.70;1.00;;;;;;5091005;28;20421;-57
2023/11/20 05:28:57;;;;;;;1.40;0.30;;;11.70;1.00;;;;;;5091119;28;20418;-56
2023/11/20 05:31:24;;;;;;;1.27;0.30;;;11.70;1.00;;;;;;5090880;28;20844;-56
2023/11/20 05:33:51;;;;;;;2.70;0.40;;;11.60;1.00;;;;;;5091414;28;20414;-55
2023/11/20 05:36:18;;;;;;;1.77;0.38;;;11.70;1.00;;;;;;5090864;28;20426;-57
2023/11/20 05:38:46;;;;;;;1.70;0.30;;;11.70;1.00;;;;;;5090169;28;20437;-55
2023/11/20 05:41:13;;;;;;;1.90;0.30;;;11.60;1.00;;;;;;5092841;28;20479;-57
2023/11/20 05:43:41;;;;;;;0.60;0.30;;;11.80;1.00;;;;;;5092717;28;20825;-57
2023/11/20 05:46:08;;;;;;;0.52;0.22;;;11.70;1.00;;;;;;5093445;28;20524;-54
2023/11/20 05:48:35;;;;;;;0.70;0.30;;;11.60;1.00;;;;;;5092655;28;20820;-57
2023/11/20 05:51:02;;;;;;;1.40;0.30;;;11.60;1.00;;;;;;5091385;28;20526;-57
2023/11/20 05:53:30;;;;;;;1.90;0.70;;;11.60;1.00;;;;;;5090908;28;20803;-56
2023/11/20 05:55:58;;;;;;;2.03;0.30;;;11.80;1.00;;;;;;5089096;28;20828;-55
2023/11/20 05:58:26;;;;;;;2.00;0.30;;;11.90;1.00;;;;;;5089790;28;20437;-56
2023/11/20 06:00:54;;;;;;;3.10;0.30;;;11.90;1.00;;;;;;5087648;28;20487;-57
2023/11/20 06:03:21;;;;;;;0.60;0.20;;;11.90;1.00;;;;;;5087392;28;20834;-55
2023/11/20 06:05:48;;;;;;;1.00;0.40;;;11.90;1.00;;;;;;5089306;28;20909;-57
2023/11/20 06:08:15;;;;;;;2.10;0.30;;;11.80;1.00;;;;;;5089469;28;20475;-55
2023/11/20 06:10:42;;;;;;;1.50;0.30;;;11.80;1.00;;;;;;5089967;28;20434;-55
2023/11/20 06:13:11;;;;;;;0.90;0.30;;;11.70;1.00;;;;;;5090062;28;20422;-57
2023/11/20 06:15:38;;;;;;;1.27;0.30;;;11.60;1.00;;;;;;5091038;28;20529;-57
2023/11/20 06:18:05;;;;;;;1.15;0.30;;;11.50;1.00;;;;;;5091568;28;20422;-57
2023/11/20 06:20:33;;;;;;;1.75;0.30;;;11.50;1.00;;;;;;5091322;28;20858;-56
2023/11/20 06:23:01;;;;;;;1.98;0.30;;;11.50;1.00;;;;;;5092226;28;20436;-57
2023/11/20 06:25:28;;;;;;;2.40;0.30;;;11.50;1.00;;;;;;5091985;28;20455;-57
2023/11/20 06:27:55;;;;;;;1.17;0.40;;;11.50;1.00;;;;;;5090868;28;20410;-57
2023/11/20 06:30:23;;;;;;;1.50;0.30;;;11.40;1.00;;;;;;5090126;28;20463;-59
2023/11/20 06:32:50;;;;;;;3.58;0.40;;;11.50;1.00;;;;;;5091509;28;20479;-57
2023/11/20 06:35:17;;;;;;;2.70;0.30;;;11.40;1.00;;;;;;5091056;28;20421;-56
2023/11/20 06:37:44;;;;;;;1.20;0.30;;;11.50;1.00;;;;;;5090019;28;20426;-57
2023/11/20 06:40:12;;;;;;;1.40;0.40;;;11.50;1.00;;;;;;5090448;28;21017;-57
2023/11/20 06:42:39;;;;;;;1.90;0.30;;;11.50;1.00;;;;;;5090140;28;20429;-57
2023/11/20 06:45:08;;;;;;;1.58;0.30;;;11.60;1.00;;;;;;5089926;28;20502;-59
2023/11/20 06:47:37;;;;;;;1.70;0.30;;;11.60;1.00;;;;;;5091609;28;20948;-58
2023/11/20 06:50:04;;;;;;;0.70;0.20;;;11.60;1.00;;;;;;5093891;28;20444;-57
2023/11/20 06:52:33;;;;;;;1.40;0.30;;;11.60;1.00;;;;;;5094267;28;20577;-56
2023/11/20 06:55:00;;;;;;;1.63;0.30;;;11.60;1.00;;;;;;5094883;28;20517;-59
2023/11/20 06:57:27;;;;;;;1.70;0.40;;;11.60;1.00;;;;;;5094068;28;20828;-59
2023/11/20 06:59:58;;;;;;;1.58;0.30;;;11.60;1.00;;;;;;5094051;28;20426;-59
2023/11/20 07:02:25;;;;;;;1.80;0.30;;;11.60;1.00;;;;;;5092070;28;20520;-57
2023/11/20 07:04:55;;;;;;;1.45;0.30;;;11.60;1.00;;;;;;5094249;28;20711;-58
2023/11/20 07:07:23;;;;;;;1.30;0.20;;;11.60;1.00;;;;;;5094175;28;20417;-59
2023/11/20 07:09:50;;;;;;;2.40;0.33;;;11.70;1.00;;;;;;5094054;28;20422;-58
2023/11/20 07:12:19;;;;;;;1.52;0.30;;;11.70;1.00;;;;;;5091998;28;20520;-58
2023/11/20 07:14:46;;;;;;;1.63;0.30;;;11.70;1.00;;;;;;5092569;28;20526;-58
2023/11/20 07:17:14;;;;;;;3.67;0.30;;;11.60;1.00;;;;;;5091473;28;20635;-59
2023/11/20 07:19:41;;;;;;;1.50;0.30;;;11.60;1.00;;;;;;5094179;28;20586;-58
2023/11/20 07:22:10;;;;;;;1.10;0.38;;;11.60;1.00;;;;;;5085584;28;20530;-59
2023/11/20 07:24:37;;;;;;;1.42;0.30;;;11.50;1.00;;;;;;5085177;28;20437;-56
2023/11/20 07:27:05;;;;;;;1.10;0.30;;;11.50;1.00;;;;;;5092348;28;20438;-57
2023/11/20 07:29:32;;;;;;;1.63;0.30;;;11.60;1.00;;;;;;5092883;28;20528;-57
2023/11/20 07:31:59;;;;;;;2.08;0.30;;;11.70;1.00;;;;;;5092370;28;20906;-58
2023/11/20 07:34:26;;;;;;;1.40;0.30;;;11.70;1.00;;;;;;5092134;28;20437;-57
2023/11/20 07:36:55;;;;;;;2.13;0.30;;;11.70;1.00;;;;;;5091682;28;20422;-55
2023/11/20 07:39:25;;;;;;;1.50;0.50;;;11.80;1.00;;;;;;5091407;28;20853;-57
2023/11/20 07:41:52;;;;;;;1.50;0.30;;;11.70;1.00;;;;;;5093999;28;20951;-58
2023/11/20 07:44:19;;;;;;;0.90;0.20;;;11.80;1.00;;;;;;5092021;28;20511;-58
2023/11/20 07:46:47;;;;;;;1.08;0.25;;;11.80;1.00;;;;;;5091348;28;20902;-59
2023/11/20 07:49:14;;;;;;;1.80;0.30;;;11.80;1.00;;;;;;5091210;28;20429;-59
2023/11/20 07:51:41;;;;;;;3.00;0.30;;;11.80;1.00;;;;;;5091858;28;20466;-59
2023/11/20 07:54:09;;;;;;;0.80;0.20;;;11.90;1.00;;;;;;5089077;28;20441;-59
2023/11/20 07:56:37;;;;;;;1.42;0.40;;;12.00;1.00;;;;;;5087963;28;20433;-59
2023/11/20 07:59:04;;;;;;;3.40;0.30;;;12.00;1.00;;;;;;5088687;28;20813;-59
2023/11/20 08:01:31;;;;;;;1.80;0.30;;;12.00;1.00;;;;;;5090086;28;20515;-60
2023/11/20 08:03:58;;;;;;;1.00;0.30;;;11.90;1.00;;;;;;5091322;28;20905;-57
2023/11/20 08:06:25;;;;;;;2.00;0.30;;;11.90;1.00;;;;;;5089862;28;20430;-58
2023/11/20 08:08:52;;;;;;;1.40;0.30;;;11.90;1.00;;;;;;5088768;28;20442;-58
2023/11/20 08:11:19;;;;;;;2.40;0.30;;;11.90;1.00;;;;;;5087531;28;20475;-58
2023/11/20 08:13:47;;;;;;;0.70;0.20;;;11.80;1.00;;;;;;5090710;28;21411;-61
2023/11/20 08:16:14;;;;;;;1.05;0.30;;;11.80;1.00;;;;;;5089254;28;20812;-56
2023/11/20 08:18:41;;;;;;;1.10;0.40;;;11.80;1.00;;;;;;5090134;28;20812;-57
2023/11/20 08:21:08;;;;;;;2.40;0.30;;;11.80;1.00;;;;;;5071078;28;20913;-61
2023/11/20 08:23:35;;;;;;;0.95;0.30;;;11.90;1.00;;;;;;5090737;28;20722;-61
2023/11/20 08:26:02;;;;;;;2.78;0.40;;;12.10;1.00;;;;;;5090451;28;20429;-61
2023/11/20 08:28:29;;;;;;;1.60;0.70;;;12.10;1.00;;;;;;5089737;28;20447;-62
2023/11/20 08:30:59;;;;;;;1.77;0.30;;;12.00;1.00;;;;;;5073574;28;20418;-65
2023/11/20 08:33:26;;;;;;;1.10;0.30;;;12.00;1.00;;;;;;5089195;28;20514;-64
2023/11/20 08:35:55;;;;;;;1.30;0.30;;;12.00;1.00;;;;;;5070390;28;20495;-64
2023/11/20 08:38:22;;;;;;;1.05;0.30;;;12.20;1.00;;;;;;5089875;28;20432;-64
2023/11/20 08:40:50;;;;;;;1.50;0.30;;;12.10;1.00;;;;;;5090590;28;20816;-64
2023/11/20 08:43:17;;;;;;;2.22;0.30;;;12.10;1.00;;;;;;5091363;28;20573;-64
2023/11/20 08:45:44;;;;;;;1.00;0.30;;;12.00;1.00;;;;;;5090903;28;20422;-64
2023/11/20 08:48:15;;;;;;;2.20;0.40;;;12.00;1.00;;;;;;5090705;28;20452;-64
2023/11/20 08:50:44;;;;;;;1.50;0.30;;;12.00;1.00;;;;;;5087116;28;20499;-66
2023/11/20 08:53:11;;;;;;;1.92;0.40;;;12.00;1.00;;;;;;5071242;28;20518;-65
2023/11/20 08:55:38;;;;;;;0.80;0.35;;;12.10;1.00;;;;;;5069403;28;20789;-64
2023/11/20 08:58:05;;;;;;;1.50;0.30;;;12.10;1.00;;;;;;5080759;28;20499;-65
2023/11/20 09:00:32;;;;;;;1.90;0.30;;;12.00;1.00;;;;;;5087315;28;20426;-65
2023/11/20 09:02:59;;;;;;;0.55;0.30;;;12.00;1.00;;;;;;5089570;28;20494;-64
2023/11/20 09:05:27;;;;;;;1.48;0.40;;;12.00;1.00;;;;;;5090230;28;20437;-64
2023/11/20 09:07:56;;;;;;;0.93;0.40;;;12.00;1.00;;;;;;5090440;28;20660;-65
2023/11/20 09:10:24;;;;;;;0.90;0.30;;;12.10;1.00;;;;;;5087263;28;20422;-63
2023/11/20 09:12:51;;;;;;;0.52;0.30;;;12.10;1.00;;;;;;5088741;28;20879;-59
2023/11/20 09:15:19;;;;;;;1.25;0.30;;;12.20;1.00;;;;;;5088427;28;20528;-59
2023/11/20 09:17:46;;;;;;;1.27;0.30;;;12.20;1.00;;;;;;5087481;28;20732;-59
2023/11/20 09:20:18;;;;;;;0.90;0.30;;;12.30;1.00;;;;;;5090210;28;20438;-59
2023/11/20 09:22:47;;;;;;;2.10;0.30;;;12.40;1.00;;;;;;5092328;28;20455;-59
2023/11/20 09:25:15;;;;;;;2.58;0.40;;;12.30;1.00;;;;;;5090654;28;20425;-59
2023/11/20 09:27:42;;;;;;;1.13;0.32;;;12.40;1.00;;;;;;5091705;28;20522;-59
2023/11/20 09:30:12;;;;;;;1.63;0.30;;;12.50;1.00;;;;;;5090210;28;20829;-59
2023/11/20 09:32:40;;;;;;;1.10;0.30;;;12.50;1.00;;;;;;5088966;28;20690;-59
2023/11/20 09:35:10;;;;;;;0.98;0.30;;;12.40;1.00;;;;;;5087525;28;20532;-59
2023/11/20 09:37:37;;;;;;;1.10;0.40;;;12.40;1.00;;;;;;5088845;28;20494;-60
2023/11/20 09:40:07;;;;;;;1.73;0.40;;;12.40;1.00;;;;;;5090471;28;20863;-59
2023/11/20 09:42:36;;;;;;;1.17;0.30;;;12.70;1.00;;;;;;5089832;28;20524;-59
2023/11/20 09:45:07;;;;;;;1.00;0.30;;;12.80;1.00;;;;;;5088052;28;20433;-58
2023/11/20 09:47:36;;;;;;;1.83;0.30;;;12.80;1.00;;;;;;5091335;28;20602;-59
2023/11/20 09:50:04;;;;;;;0.60;0.30;;;13.00;1.00;;;;;;5090648;28;20444;-60
2023/11/20 09:52:34;;;;;;;1.20;0.30;;;13.00;1.00;;;;;;5089661;28;20710;-60
2023/11/20 09:55:01;;;;;;;0.60;0.22;;;13.00;1.00;;;;;;5090100;28;20733;-62
2023/11/20 09:57:29;;;;;;;1.90;0.30;;;13.00;1.00;;;;;;5091129;28;20479;-65
2023/11/20 09:59:57;;;;;;;1.38;0.20;;;13.00;1.00;;;;;;5090312;28;20884;-64
2023/11/20 10:02:28;;;;;;;1.10;0.20;;;12.90;1.00;;;;;;5090223;28;20926;-65
2023/11/20 10:04:57;;;;;;;1.27;0.30;;;13.00;1.00;;;;;;5091205;28;20422;-65
2023/11/20 10:07:27;;;;;;;1.70;0.40;;;13.10;1.00;;;;;;5090615;28;20459;-64
2023/11/20 10:09:58;;;;;;;2.00;0.40;;;13.20;1.00;;;;;;5090786;28;20429;-61
2023/11/20 10:12:29;;;;;;;0.60;0.20;;;13.30;1.00;;;;;;5083798;28;20857;-62
2023/11/20 10:14:57;;;;;;;1.13;0.30;;;13.20;99.90;;;;;;5075145;28;20434;-63
2023/11/20 10:17:26;;;;;;;0.68;0.30;;;13.30;99.90;;;;;;5088833;28;20430;-61
2023/11/20 10:19:53;;;;;;;1.05;0.30;;;13.20;1.00;;;;;;5088973;28;20441;-61
2023/11/20 10:22:26;;;;;;;0.95;0.30;;;13.20;1.00;;;;;;5091230;28;20471;-61
2023/11/20 10:24:53;;;;;;;0.80;0.30;;;13.20;1.00;;;;;;5095551;28;20453;-60
2023/11/20 10:27:22;;;;;;;1.80;0.30;;;13.00;1.00;;;;;;5089054;28;20491;-64
2023/11/20 10:29:50;;;;;;;0.90;0.30;;;12.80;99.90;;;;;;5093802;28;20840;-61
2023/11/20 10:32:21;;;;;;;2.50;0.40;;;12.70;1.00;;;;;;5086755;28;20734;-60
2023/11/20 10:34:49;;;;;;;2.90;0.30;;;12.80;1.00;;;;;;5083314;28;20430;-60
2023/11/20 10:37:20;;;;;;;0.77;0.32;;;12.70;1.00;;;;;;5093367;28;20441;-60
2023/11/20 10:39:49;;;;;;;2.20;0.40;;;12.80;1.00;;;;;;5082730;28;20473;-61
2023/11/20 10:42:19;;;;;;;0.98;0.40;;;12.70;1.00;;;;;;5092483;28;20437;-59
2023/11/20 10:44:46;;;;;;;0.70;0.30;;;12.70;1.00;;;;;;5093995;28;20447;-59
2023/11/20 10:47:15;;;;;;;1.00;0.20;;;12.70;1.00;;;;;;5094255;28;20426;-60
2023/11/20 10:49:44;;;;;;;1.13;0.30;;;12.60;1.00;;;;;;5089763;28;20512;-59
2023/11/20 10:52:25;;;;;;;1.60;0.30;;;12.60;1.00;;;;;;5091335;28;20517;-60
2023/11/20 10:54:52;;;;;;;1.23;0.30;;;12.60;1.00;;;;;;5091026;28;20439;-59
2023/11/20 10:57:21;;;;;;;1.00;0.50;;;12.70;1.00;;;;;;5094332;28;20521;-62
2023/11/20 10:59:52;;;;;;;2.50;0.30;;;12.50;1.00;;;;;;5089670;28;20460;-57
2023/11/20 11:02:20;;;;;;;2.20;0.30;;;12.20;1.00;;;;;;5093021;28;20448;-59
2023/11/20 11:04:52;;;;;;;3.30;0.30;;;11.90;19.20;;;;;;5092740;28;20497;-61
2023/11/20 11:07:22;;;;;;;1.25;0.30;;;11.60;99.90;;;;;;5093895;28;20433;-59
2023/11/20 11:09:50;;;;;;;1.10;0.30;;;11.50;99.90;;;;;;5087798;28;20617;-59
2023/11/20 11:12:18;;;;;;;1.50;0.30;;;11.50;99.90;;;;;;5093622;28;20486;-59
2023/11/20 11:14:45;;;;;;;1.57;0.30;;;11.50;99.90;;;;;;5085632;28;20446;-59
2023/11/20 11:17:18;;;;;;;1.10;0.40;;;11.50;99.90;;;;;;5082415;28;20437;-60
2023/11/20 11:19:52;;;;;;;1.10;0.20;;;11.50;99.90;;;;;;5092547;28;20429;-60
2023/11/20 11:22:31;;;;;;;1.40;0.30;;;11.60;99.90;;;;;;5089092;28;20510;-60
2023/11/20 11:25:02;;;;;;;1.20;0.20;;;11.80;99.90;;;;;;5090332;28;20891;-60
2023/11/20 11:27:37;;;;;;;1.50;0.30;;;11.80;99.90;;;;;;5091613;28;20425;-58
2023/11/20 11:30:09;;;;;;;1.90;0.30;;;11.90;99.90;;;;;;5091000;28;20491;-59
2023/11/20 11:32:56;;;;;;;2.23;0.20;;;12.10;99.90;;;;;;5089830;28;20433;-59
2023/11/20 11:35:56;;;;;;;1.13;0.30;;;12.30;99.90;;;;;;5091745;28;20430;-59
2023/11/20 11:38:31;;;;;;;1.60;0.30;;;12.60;99.90;;;;;;5091532;28;20584;-59
2023/11/20 11:41:13;;;;;;;1.83;0.20;;;12.60;99.90;;;;;;5091999;28;20806;-59
2023/11/20 11:43:49;;;;;;;0.40;0.20;;;12.50;99.90;;;;;;5089435;28;21028;-60
2023/11/20 11:46:16;;;;;;;0.80;0.23;;;12.30;99.90;;;;;;5091591;28;20526;-60
2023/11/20 11:48:46;;;;;;;0.80;0.30;;;12.20;99.90;;;;;;5092522;28;20540;-60
2023/11/20 11:51:24;;;;;;;0.55;0.30;;;12.20;99.90;;;;;;5092203;28;20426;-60
2023/11/20 11:54:14;;;;;;;1.30;0.20;;;12.10;99.90;;;;;;5091381;28;20768;-60
2023/11/20 11:56:53;;;;;;;0.80;0.20;;;12.10;99.90;;;;;;5092712;28;20430;-65
2023/11/20 11:59:29;;;;;;;1.40;0.30;;;12.20;99.90;;;;;;5092562;28;20428;-65
2023/11/20 12:01:56;;;;;;;0.90;0.20;;;12.20;1.00;;;;;;5092488;28;20614;-65
2023/11/20 12:05:03;;;;;;;0.40;0.10;;;12.30;1.00;;;;;;5092202;28;20755;-65
2023/11/20 12:07:56;;;;;;;1.00;0.20;;;12.30;1.00;;;;;;5090203;28;20736;-65
2023/11/20 12:10:49;;;;;;;0.40;0.10;;;12.30;1.00;;;;;;5091535;28;20418;-64
2023/11/20 12:13:16;;;;;;;0.43;0.10;;;12.40;1.00;;;;;;5091300;28;20417;-65
2023/11/20 12:15:47;;;;;;;0.95;0.20;;;12.50;1.00;;;;;;5093070;28;20791;-65
2023/11/20 12:18:16;;;;;;;0.80;0.10;;;12.70;1.00;;;;;;5092120;28;20868;-64
2023/11/20 12:21:04;;;;;;;0.75;0.10;;;12.60;1.00;;;;;;5090536;28;20503;-63
2023/11/20 12:23:33;;;;;;;0.40;0.10;;;12.60;1.00;;;;;;5082082;28;20520;-63
2023/11/20 12:26:02;;;;;;;0.50;0.20;;;12.70;1.00;;;;;;5081890;28;20422;-64
2023/11/20 12:28:32;;;;;;;0.60;0.20;;;12.70;1.00;;;;;;5072312;28;20706;-64
2023/11/20 12:31:03;;;;;;;1.93;0.30;;;12.70;1.00;;;;;;5086403;28;20472;-63
2023/11/20 12:33:31;;;;;;;1.20;0.40;;;12.70;1.00;;;;;;5092165;28;20457;-64
2023/11/20 12:36:00;;;;;;;0.45;0.20;;;12.70;1.00;;;;;;5092625;28;20513;-64
2023/11/20 12:38:27;;;;;;;0.60;0.20;;;12.70;1.00;;;;;;5090591;28;20426;-64
2023/11/20 12:40:56;;;;;;;0.80;0.20;;;12.70;1.00;;;;;;5091691;28;20529;-64
2023/11/20 12:43:24;;;;;;;0.90;0.20;;;12.70;1.00;;;;;;5092644;28;20455;-63
2023/11/20 12:45:52;;;;;;;0.40;0.20;;;12.60;1.00;;;;;;5091434;28;20770;-63
2023/11/20 12:48:19;;;;;;;0.60;0.20;;;12.50;1.00;;;;;;5091632;28;20429;-64
2023/11/20 12:50:49;;;;;;;0.98;0.20;;;12.50;1.00;;;;;;5090675;28;21590;-63
2023/11/20 12:53:18;;;;;;;0.80;0.20;;;12.60;1.00;;;;;;5089276;28;20741;-60
2023/11/20 12:55:45;;;;;;;0.85;0.20;;;12.60;1.00;;;;;;5089031;28;20810;-60
2023/11/20 12:58:14;;;;;;;0.70;0.20;;;12.60;1.00;;;;;;5088894;28;20484;-59
2023/11/20 13:00:43;;;;;;;0.47;0.20;;;12.60;1.00;;;;;;5071190;28;20451;-59
2023/11/20 13:03:14;;;;;;;1.00;0.30;;;12.60;1.00;;;;;;5076450;28;21891;-60